Time;durP1;ratioP1;P1;durP2;ratioP2;P2;SDS_P1;SDS_P2;PMS_P1;PMS_P2;Temp;Humidity;BMP_temperature;BMP_pressure;BME280_temperature;BME280_humidity;BME280_pressure;Samples;Min_cycle;Max_cycle;Signal;HPM_P1;HPM_P2
2023/03/17 00:00:36;;;;;;;4.38;2.22;;;;;;;;;;4950280;28;25062;-77
2023/03/17 00:03:04;;;;;;;2.88;1.90;;;;;;;;;;4979064;28;25056;-78
2023/03/17 00:05:32;;;;;;;5.38;1.90;;;;;;;;;;4974249;28;25070;-77
2023/03/17 00:08:01;;;;;;;4.55;2.20;;;;;;;;;;4964571;28;25092;-78
2023/03/17 00:10:27;;;;;;;3.97;1.83;;;;;;;;;;4964169;28;25081;-77
2023/03/17 00:12:54;;;;;;;4.32;2.05;;;;;;;;;;4957682;28;25060;-77
2023/03/17 00:15:21;;;;;;;3.15;2.00;;;;;;;;;;4962848;28;25084;-77
2023/03/17 00:17:47;;;;;;;3.78;2.00;;;;;;;;;;4960610;28;25073;-79
2023/03/17 00:20:18;;;;;;;5.82;1.88;;;;;;;;;;4962824;29;25080;-78
2023/03/17 00:22:45;;;;;;;2.08;1.65;;;;;;;;;;4968466;28;25072;-80
2023/03/17 00:25:17;;;;;;;5.47;2.08;;;;;;;;;;4965647;28;25077;-77
2023/03/17 00:27:43;;;;;;;;;;;;;;;;;;4963098;28;25095;-78
2023/03/17 00:30:10;;;;;;;5.93;2.15;;;;;;;;;;4951402;28;24077;-76
2023/03/17 00:32:37;;;;;;;3.30;1.80;;;;;;;;;;4951867;28;25078;-75
2023/03/17 00:35:04;;;;;;;2.90;1.90;;;;;;;;;;4951919;28;25080;-76
2023/03/17 00:37:30;;;;;;;4.35;1.58;;;;;;;;;;4939254;28;25061;-77
2023/03/17 00:39:56;;;;;;;4.25;1.75;;;;;;;;;;4943389;28;25080;-75
2023/03/17 00:42:22;;;;;;;3.38;1.58;;;;;;;;;;4941708;28;25076;-77
2023/03/17 00:44:49;;;;;;;5.75;1.70;;;;;;;;;;4948956;28;25074;-76
2023/03/17 00:47:15;;;;;;;4.68;2.05;;;;;;;;;;4960584;28;25155;-76
2023/03/17 00:49:41;;;;;;;4.50;2.15;;;;;;;;;;4951863;28;25077;-76
2023/03/17 00:52:08;;;;;;;2.75;1.83;;;;;;;;;;4948449;28;25074;-74
2023/03/17 00:54:34;;;;;;;1.88;1.60;;;;;;;;;;4942834;28;25064;-75
2023/03/17 00:57:00;;;;;;;7.18;2.28;;;;;;;;;;4943691;28;25054;-75
2023/03/17 00:59:28;;;;;;;1.80;1.50;;;;;;;;;;4929899;28;25070;-76
2023/03/17 01:01:55;;;;;;;8.60;2.13;;;;;;;;;;4935735;28;25064;-76
2023/03/17 01:04:21;;;;;;;2.40;1.50;;;;;;;;;;4936111;28;25044;-77
2023/03/17 01:06:48;;;;;;;3.67;2.15;;;;;;;;;;4942714;28;25071;-76
2023/03/17 01:09:15;;;;;;;3.42;1.60;;;;;;;;;;4942720;28;25093;-76
2023/03/17 01:11:41;;;;;;;4.43;1.77;;;;;;;;;;4947633;28;25082;-78
2023/03/17 01:14:08;;;;;;;3.20;1.55;;;;;;;;;;4941283;28;25052;-75
2023/03/17 01:16:34;;;;;;;3.92;1.92;;;;;;;;;;4940555;28;25120;-76
2023/03/17 01:19:00;;;;;;;3.70;2.05;;;;;;;;;;4936856;28;25102;-76
2023/03/17 01:21:26;;;;;;;6.63;2.20;;;;;;;;;;4940880;28;25065;-75
2023/03/17 01:23:52;;;;;;;4.72;2.40;;;;;;;;;;4937738;28;25130;-77
2023/03/17 01:26:18;;;;;;;6.20;2.30;;;;;;;;;;4942150;28;25069;-75
2023/03/17 01:28:44;;;;;;;1.67;1.58;;;;;;;;;;4937363;28;25102;-75
2023/03/17 01:31:11;;;;;;;6.40;2.22;;;;;;;;;;4940058;28;25059;-77
2023/03/17 01:33:37;;;;;;;2.08;1.65;;;;;;;;;;4946885;28;25076;-78
2023/03/17 01:36:03;;;;;;;4.00;2.08;;;;;;;;;;4941397;28;25105;-78
2023/03/17 01:38:29;;;;;;;4.47;1.65;;;;;;;;;;4944286;28;25058;-77
2023/03/17 01:40:55;;;;;;;2.88;2.03;;;;;;;;;;4946967;28;25081;-75
2023/03/17 01:43:26;;;;;;;4.00;2.38;;;;;;;;;;4948680;28;25135;-77
2023/03/17 01:46:11;;;;;;;6.18;2.50;;;;;;;;;;4943140;28;25125;-77
2023/03/17 01:48:42;;;;;;;3.10;1.92;;;;;;;;;;4938221;28;25099;-76
2023/03/17 01:51:10;;;;;;;3.85;2.10;;;;;;;;;;4948322;28;25123;-77
2023/03/17 01:53:37;;;;;;;3.45;2.45;;;;;;;;;;4951859;28;25103;-75
2023/03/17 01:56:03;;;;;;;3.70;1.60;;;;;;;;;;4944886;28;25069;-76
2023/03/17 01:58:29;;;;;;;4.70;2.55;;;;;;;;;;4944991;28;25073;-77
2023/03/17 02:00:55;;;;;;;3.95;1.90;;;;;;;;;;4945524;28;25071;-76
2023/03/17 02:03:22;;;;;;;4.30;1.80;;;;;;;;;;4945904;28;26341;-76
2023/03/17 02:05:50;;;;;;;5.53;2.55;;;;;;;;;;4944415;28;25075;-76
2023/03/17 02:08:16;;;;;;;2.92;1.75;;;;;;;;;;4943535;28;25073;-76
2023/03/17 02:10:43;;;;;;;4.63;2.33;;;;;;;;;;4936159;28;25071;-76
2023/03/17 02:13:10;;;;;;;4.43;1.65;;;;;;;;;;4953972;28;25143;-76
2023/03/17 02:15:45;;;;;;;3.63;1.80;;;;;;;;;;4949242;28;25073;-76
2023/03/17 02:18:11;;;;;;;3.25;2.00;;;;;;;;;;4938108;28;25074;-75
2023/03/17 02:20:37;;;;;;;4.85;1.83;;;;;;;;;;4947631;28;25071;-77
2023/03/17 02:23:04;;;;;;;5.60;2.10;;;;;;;;;;4934817;28;25081;-75
2023/03/17 02:25:30;;;;;;;2.75;1.73;;;;;;;;;;4945674;28;25143;-75
2023/03/17 02:27:59;;;;;;;2.72;1.90;;;;;;;;;;4962443;28;25088;-77
2023/03/17 02:30:25;;;;;;;4.90;2.00;;;;;;;;;;4969672;28;25068;-78
2023/03/17 02:32:51;;;;;;;3.17;1.80;;;;;;;;;;4947770;28;25067;-76
2023/03/17 02:35:19;;;;;;;2.80;2.28;;;;;;;;;;4941072;28;25058;-75
2023/03/17 02:37:45;;;;;;;1.92;1.48;;;;;;;;;;4953820;28;24812;-77
2023/03/17 02:40:12;;;;;;;2.60;1.67;;;;;;;;;;4950750;28;25127;-76
2023/03/17 02:42:40;;;;;;;4.28;1.70;;;;;;;;;;4945864;28;25064;-75
2023/03/17 02:45:06;;;;;;;2.55;1.60;;;;;;;;;;4939288;28;25100;-77
2023/03/17 02:47:32;;;;;;;1.75;1.50;;;;;;;;;;4947778;28;25094;-77
2023/03/17 02:49:58;;;;;;;2.03;1.67;;;;;;;;;;4947132;28;25078;-77
2023/03/17 02:52:25;;;;;;;2.53;1.80;;;;;;;;;;4950381;28;25053;-74
2023/03/17 02:54:51;;;;;;;3.70;1.75;;;;;;;;;;4954346;28;25062;-76
2023/03/17 02:57:17;;;;;;;3.25;2.13;;;;;;;;;;4942630;28;25061;-76
2023/03/17 02:59:43;;;;;;;6.80;2.03;;;;;;;;;;4950914;28;25111;-76
2023/03/17 03:02:10;;;;;;;5.03;1.20;;;;;;;;;;4957395;28;25061;-75
2023/03/17 03:04:36;;;;;;;2.33;1.40;;;;;;;;;;4950855;28;25069;-74
2023/03/17 03:07:02;;;;;;;2.00;1.50;;;;;;;;;;4952179;28;25061;-75
2023/03/17 03:09:29;;;;;;;3.90;1.70;;;;;;;;;;4949165;28;25214;-77
2023/03/17 03:11:55;;;;;;;3.63;1.52;;;;;;;;;;4948175;28;25103;-77
2023/03/17 03:14:22;;;;;;;3.13;1.63;;;;;;;;;;4948241;28;25073;-75
2023/03/17 03:16:48;;;;;;;2.63;1.70;;;;;;;;;;4952467;28;25082;-75
2023/03/17 03:19:15;;;;;;;3.13;2.35;;;;;;;;;;4958387;28;25088;-76
2023/03/17 03:21:41;;;;;;;3.00;1.60;;;;;;;;;;4947079;28;25046;-75
2023/03/17 03:24:08;;;;;;;3.33;2.00;;;;;;;;;;4960334;28;25095;-75
2023/03/17 03:26:34;;;;;;;4.82;2.10;;;;;;;;;;4954004;28;25059;-75
2023/03/17 03:29:01;;;;;;;4.10;1.52;;;;;;;;;;4953745;28;25083;-77
2023/03/17 03:31:27;;;;;;;3.00;1.92;;;;;;;;;;4940142;28;25069;-74
2023/03/17 03:33:53;;;;;;;3.05;1.52;;;;;;;;;;4954348;28;25082;-75
2023/03/17 03:36:19;;;;;;;4.13;2.10;;;;;;;;;;4947091;28;25086;-77
2023/03/17 03:38:45;;;;;;;4.50;1.55;;;;;;;;;;4940294;28;25098;-75
2023/03/17 03:41:11;;;;;;;5.38;1.98;;;;;;;;;;4950206;28;25114;-75
2023/03/17 03:43:37;;;;;;;1.70;1.60;;;;;;;;;;4946255;28;25059;-76
2023/03/17 03:46:04;;;;;;;3.35;1.70;;;;;;;;;;4968271;28;25103;-77
2023/03/17 03:48:31;;;;;;;4.13;1.80;;;;;;;;;;4952933;28;25058;-75
2023/03/17 03:50:57;;;;;;;6.45;2.00;;;;;;;;;;4953360;28;25052;-77
2023/03/17 03:53:23;;;;;;;3.50;2.13;;;;;;;;;;4948430;28;25068;-77
2023/03/17 03:55:49;;;;;;;3.28;1.80;;;;;;;;;;4948772;28;25146;-78
2023/03/17 03:58:15;;;;;;;2.45;1.65;;;;;;;;;;4954711;28;25059;-73
2023/03/17 04:00:41;;;;;;;2.45;1.50;;;;;;;;;;4959444;28;25064;-75
2023/03/17 04:03:07;;;;;;;3.05;1.65;;;;;;;;;;4952016;28;25070;-77
2023/03/17 04:05:33;;;;;;;3.40;1.85;;;;;;;;;;4944242;28;25082;-79
2023/03/17 04:07:59;;;;;;;2.45;1.42;;;;;;;;;;4953251;28;25076;-78
2023/03/17 04:10:26;;;;;;;5.20;1.90;;;;;;;;;;4952621;28;25067;-78
2023/03/17 04:12:52;;;;;;;2.63;1.60;;;;;;;;;;4953336;28;25081;-76
2023/03/17 04:15:19;;;;;;;2.92;1.73;;;;;;;;;;4945307;28;25119;-76
2023/03/17 04:17:45;;;;;;;3.88;1.67;;;;;;;;;;4947839;28;25065;-76
2023/03/17 04:20:13;;;;;;;2.05;1.35;;;;;;;;;;4949094;28;25075;-76
2023/03/17 04:22:39;;;;;;;3.85;1.90;;;;;;;;;;4949020;28;25073;-76
2023/03/17 04:25:06;;;;;;;2.22;1.67;;;;;;;;;;4941263;28;25071;-75
2023/03/17 04:27:32;;;;;;;3.25;1.70;;;;;;;;;;4952964;28;25056;-77
2023/03/17 04:29:58;;;;;;;4.90;1.88;;;;;;;;;;4945491;28;25110;-75
2023/03/17 04:32:24;;;;;;;1.65;1.52;;;;;;;;;;4944682;28;25069;-75
2023/03/17 04:34:50;;;;;;;3.53;1.42;;;;;;;;;;4949413;28;25142;-76
2023/03/17 04:37:16;;;;;;;5.47;1.90;;;;;;;;;;4953268;28;25083;-76
2023/03/17 04:39:42;;;;;;;3.63;1.80;;;;;;;;;;4952177;28;25145;-76
2023/03/17 04:42:08;;;;;;;3.13;1.98;;;;;;;;;;4952799;28;25053;-77
2023/03/17 04:44:35;;;;;;;1.92;1.45;;;;;;;;;;4954614;28;25110;-77
2023/03/17 04:47:01;;;;;;;1.52;1.30;;;;;;;;;;4959637;28;25050;-75
2023/03/17 04:49:27;;;;;;;2.67;1.77;;;;;;;;;;4945413;28;25047;-78
2023/03/17 04:51:53;;;;;;;3.38;1.77;;;;;;;;;;4952603;28;25112;-75
2023/03/17 04:54:20;;;;;;;3.45;1.75;;;;;;;;;;4969401;28;24895;-78
2023/03/17 04:56:46;;;;;;;4.28;1.65;;;;;;;;;;4946099;28;25067;-75
2023/03/17 04:59:12;;;;;;;4.70;1.50;;;;;;;;;;4951438;28;25062;-76
2023/03/17 05:01:37;;;;;;;3.45;1.65;;;;;;;;;;4945059;28;25084;-77
2023/03/17 05:04:04;;;;;;;5.13;1.73;;;;;;;;;;4952129;28;25094;-78
2023/03/17 05:06:30;;;;;;;2.70;1.52;;;;;;;;;;4949920;28;25083;-73
2023/03/17 05:08:56;;;;;;;2.65;1.35;;;;;;;;;;4950215;28;25070;-78
2023/03/17 05:11:22;;;;;;;5.05;1.73;;;;;;;;;;4943823;28;25122;-77
2023/03/17 05:13:49;;;;;;;1.83;1.40;;;;;;;;;;4935383;28;25109;-78
2023/03/17 05:16:15;;;;;;;3.90;1.80;;;;;;;;;;4952283;28;25076;-76
2023/03/17 05:18:42;;;;;;;2.53;1.50;;;;;;;;;;4945199;28;25065;-77
2023/03/17 05:21:08;;;;;;;2.22;1.55;;;;;;;;;;4951838;28;25079;-75
2023/03/17 05:23:34;;;;;;;6.30;2.22;;;;;;;;;;4944625;28;25074;-78
2023/03/17 05:26:00;;;;;;;2.47;1.27;;;;;;;;;;4952117;28;25099;-78
2023/03/17 05:28:27;;;;;;;2.60;1.40;;;;;;;;;;4952504;28;25089;-77
2023/03/17 05:30:53;;;;;;;2.47;1.48;;;;;;;;;;4946677;28;25078;-75
2023/03/17 05:33:20;;;;;;;2.58;1.45;;;;;;;;;;4950844;28;25086;-76
2023/03/17 05:35:46;;;;;;;2.70;1.80;;;;;;;;;;4951972;28;25074;-77
2023/03/17 05:38:13;;;;;;;4.60;2.03;;;;;;;;;;4962224;28;25063;-77
2023/03/17 05:40:39;;;;;;;4.82;2.00;;;;;;;;;;4961291;28;25115;-79
2023/03/17 05:43:05;;;;;;;4.40;2.05;;;;;;;;;;4953750;28;25053;-76
2023/03/17 05:45:32;;;;;;;2.88;1.88;;;;;;;;;;4960023;28;25081;-77
2023/03/17 05:47:58;;;;;;;8.75;2.22;;;;;;;;;;4953148;28;25055;-78
2023/03/17 05:50:24;;;;;;;8.43;1.73;;;;;;;;;;4949185;28;25098;-77
2023/03/17 05:52:51;;;;;;;11.35;1.85;;;;;;;;;;4941482;28;25105;-77
2023/03/17 05:55:17;;;;;;;1.58;1.38;;;;;;;;;;4943658;28;25180;-77
2023/03/17 05:57:43;;;;;;;4.78;1.80;;;;;;;;;;4949352;28;25091;-76
2023/03/17 06:00:09;;;;;;;4.35;1.67;;;;;;;;;;4939727;28;25079;-75
2023/03/17 06:02:35;;;;;;;3.00;1.73;;;;;;;;;;4947870;28;25071;-77
2023/03/17 06:05:01;;;;;;;4.45;1.52;;;;;;;;;;4944615;28;25078;-76
2023/03/17 06:07:27;;;;;;;2.53;1.63;;;;;;;;;;4939892;28;25060;-75
2023/03/17 06:09:54;;;;;;;4.00;1.63;;;;;;;;;;4942084;28;25068;-77
2023/03/17 06:12:20;;;;;;;5.32;1.70;;;;;;;;;;4951945;28;25093;-75
2023/03/17 06:14:46;;;;;;;4.50;1.83;;;;;;;;;;4952036;28;25078;-77
2023/03/17 06:17:13;;;;;;;3.72;1.90;;;;;;;;;;4937895;28;25091;-76
2023/03/17 06:19:39;;;;;;;7.45;1.65;;;;;;;;;;4949180;28;25094;-77
2023/03/17 06:22:06;;;;;;;4.75;1.58;;;;;;;;;;4955375;28;25083;-76
2023/03/17 06:24:32;;;;;;;4.20;1.90;;;;;;;;;;4944742;28;25065;-76
2023/03/17 06:26:58;;;;;;;4.72;1.48;;;;;;;;;;4954183;28;25062;-78
2023/03/17 06:29:24;;;;;;;3.35;1.48;;;;;;;;;;4951176;28;25076;-78
2023/03/17 06:31:50;;;;;;;3.38;1.20;;;;;;;;;;4955759;28;25125;-77
2023/03/17 06:34:17;;;;;;;6.00;1.60;;;;;;;;;;4950212;28;25054;-76
2023/03/17 06:36:44;;;;;;;4.05;1.85;;;;;;;;;;4963213;28;25058;-76
2023/03/17 06:39:10;;;;;;;2.90;1.58;;;;;;;;;;4961724;28;25094;-76
2023/03/17 06:41:36;;;;;;;3.85;1.83;;;;;;;;;;4962551;28;25054;-76
2023/03/17 06:44:04;;;;;;;8.73;3.70;;;;;;;;;;4953184;28;25066;-76
2023/03/17 06:46:30;;;;;;;5.30;1.88;;;;;;;;;;4954132;28;25093;-77
2023/03/17 06:48:56;;;;;;;4.85;1.80;;;;;;;;;;4944004;28;25076;-78
2023/03/17 06:51:22;;;;;;;3.40;1.95;;;;;;;;;;4966296;28;25100;-76
2023/03/17 06:53:48;;;;;;;3.40;1.80;;;;;;;;;;4968397;28;25081;-77
2023/03/17 06:56:14;;;;;;;4.47;1.98;;;;;;;;;;4963513;28;25073;-76
2023/03/17 06:58:40;;;;;;;3.45;1.52;;;;;;;;;;4948174;28;25082;-76
2023/03/17 07:01:06;;;;;;;4.78;1.65;;;;;;;;;;4953491;28;25148;-77
2023/03/17 07:03:34;;;;;;;12.73;3.17;;;;;;;;;;4955233;28;25155;-78
2023/03/17 07:06:00;;;;;;;3.80;1.90;;;;;;;;;;4953498;28;25102;-76
2023/03/17 07:08:29;;;;;;;4.65;2.05;;;;;;;;;;4956677;28;25057;-77
2023/03/17 07:10:56;;;;;;;6.75;2.38;;;;;;;;;;4951737;28;25054;-75
2023/03/17 07:13:23;;;;;;;3.00;2.05;;;;;;;;;;4949917;28;25150;-77
2023/03/17 07:15:49;;;;;;;4.43;2.22;;;;;;;;;;4952565;28;25146;-77
2023/03/17 07:18:16;;;;;;;3.38;1.88;;;;;;;;;;4956620;28;25072;-77
2023/03/17 07:20:42;;;;;;;3.40;1.73;;;;;;;;;;4957441;28;25136;-78
2023/03/17 07:23:13;;;;;;;5.13;1.90;;;;;;;;;;4951027;28;25108;-77
2023/03/17 07:25:42;;;;;;;4.38;2.00;;;;;;;;;;4952747;28;25062;-77
2023/03/17 07:28:08;;;;;;;4.00;1.90;;;;;;;;;;4953843;28;25133;-77
2023/03/17 07:30:34;;;;;;;3.58;1.90;;;;;;;;;;4993533;28;25060;-76
2023/03/17 07:33:01;;;;;;;6.85;2.10;;;;;;;;;;4951394;28;25072;-77
2023/03/17 07:35:27;;;;;;;4.35;1.70;;;;;;;;;;4941395;28;25051;-77
2023/03/17 07:37:53;;;;;;;5.35;1.88;;;;;;;;;;4943988;28;25068;-76
2023/03/17 07:40:20;;;;;;;6.38;1.92;;;;;;;;;;4952750;28;25123;-77
2023/03/17 07:42:46;;;;;;;3.00;1.67;;;;;;;;;;4961070;28;25099;-76
2023/03/17 07:45:12;;;;;;;2.90;1.70;;;;;;;;;;4954894;28;25066;-76
2023/03/17 07:47:38;;;;;;;2.97;1.92;;;;;;;;;;4956471;28;25078;-77
2023/03/17 07:50:05;;;;;;;6.47;2.08;;;;;;;;;;4950469;28;25123;-77
2023/03/17 07:52:31;;;;;;;6.05;2.30;;;;;;;;;;4949221;28;25057;-77
2023/03/17 07:54:57;;;;;;;3.50;2.45;;;;;;;;;;4953932;28;25082;-77
2023/03/17 07:57:23;;;;;;;4.07;1.85;;;;;;;;;;4951441;28;25076;-77
2023/03/17 07:59:50;;;;;;;5.75;2.05;;;;;;;;;;4951789;28;25165;-77
2023/03/17 08:02:16;;;;;;;5.07;2.20;;;;;;;;;;5002098;28;25093;-76
2023/03/17 08:04:43;;;;;;;3.65;2.13;;;;;;;;;;4962231;28;25157;-76
2023/03/17 08:07:09;;;;;;;6.78;2.08;;;;;;;;;;4949829;28;25056;-76
2023/03/17 08:09:36;;;;;;;3.50;1.80;;;;;;;;;;4948349;28;25108;-75
2023/03/17 08:12:02;;;;;;;7.10;2.05;;;;;;;;;;4957664;28;25045;-74
2023/03/17 08:14:28;;;;;;;6.22;2.20;;;;;;;;;;4936663;28;25066;-72
2023/03/17 08:16:54;;;;;;;3.75;1.90;;;;;;;;;;4943160;28;25060;-72
2023/03/17 08:19:21;;;;;;;5.13;1.75;;;;;;;;;;4946341;28;25073;-73
2023/03/17 08:21:47;;;;;;;4.07;2.00;;;;;;;;;;4942150;28;25076;-71
2023/03/17 08:24:13;;;;;;;4.82;2.10;;;;;;;;;;4945761;28;25065;-71
2023/03/17 08:26:39;;;;;;;4.38;2.35;;;;;;;;;;4950983;28;25086;-76
2023/03/17 08:29:06;;;;;;;5.47;2.13;;;;;;;;;;4956771;28;25088;-76
2023/03/17 08:31:32;;;;;;;3.50;2.40;;;;;;;;;;4958789;28;25096;-75
2023/03/17 08:33:59;;;;;;;4.13;1.75;;;;;;;;;;4954029;28;25064;-77
2023/03/17 08:36:25;;;;;;;7.45;3.08;;;;;;;;;;4953216;28;25060;-76
2023/03/17 08:38:52;;;;;;;4.75;2.08;;;;;;;;;;4956898;28;25094;-75
2023/03/17 08:41:19;;;;;;;4.93;2.17;;;;;;;;;;4959072;28;25067;-75
2023/03/17 08:43:45;;;;;;;4.45;2.15;;;;;;;;;;4953622;28;25067;-76
2023/03/17 08:46:17;;;;;;;3.33;2.25;;;;;;;;;;4955261;28;25071;-77
2023/03/17 08:48:44;;;;;;;6.97;1.83;;;;;;;;;;4967957;28;25073;-79
2023/03/17 08:51:10;;;;;;;2.63;2.15;;;;;;;;;;4962054;28;25050;-78
2023/03/17 08:53:36;;;;;;;5.00;2.05;;;;;;;;;;4959585;28;25071;-76
2023/03/17 08:56:06;;;;;;;3.75;2.10;;;;;;;;;;4946537;28;25082;-77
2023/03/17 08:58:32;;;;;;;2.75;1.80;;;;;;;;;;4948827;28;25084;-77
2023/03/17 09:01:01;;;;;;;3.22;2.03;;;;;;;;;;4957643;28;25074;-76
2023/03/17 09:03:28;;;;;;;5.38;2.15;;;;;;;;;;4956300;28;25077;-77
2023/03/17 09:05:54;;;;;;;3.78;1.92;;;;;;;;;;4950811;28;25115;-75
2023/03/17 09:08:21;;;;;;;7.60;1.98;;;;;;;;;;4957329;28;25083;-74
2023/03/17 09:10:48;;;;;;;5.57;2.50;;;;;;;;;;4952147;28;25066;-75
2023/03/17 09:13:15;;;;;;;3.88;2.30;;;;;;;;;;4957292;28;25069;-77
2023/03/17 09:15:41;;;;;;;2.60;1.90;;;;;;;;;;4954176;28;25120;-75
2023/03/17 09:18:08;;;;;;;6.72;3.00;;;;;;;;;;4948522;28;25111;-75
2023/03/17 09:20:34;;;;;;;5.28;2.28;;;;;;;;;;4951333;28;25074;-73
2023/03/17 09:23:02;;;;;;;5.57;2.65;;;;;;;;;;4958845;28;25071;-76
2023/03/17 09:25:28;;;;;;;4.43;2.28;;;;;;;;;;4955691;28;25061;-73
2023/03/17 09:27:55;;;;;;;4.25;2.00;;;;;;;;;;4952399;28;25100;-75
2023/03/17 09:30:21;;;;;;;5.40;2.22;;;;;;;;;;4952299;28;25069;-75
2023/03/17 09:32:48;;;;;;;4.97;2.80;;;;;;;;;;4948524;28;25068;-76
2023/03/17 09:35:14;;;;;;;5.97;2.25;;;;;;;;;;4952113;28;25073;-75
2023/03/17 09:37:40;;;;;;;7.50;2.35;;;;;;;;;;4950631;28;25080;-76
2023/03/17 09:40:08;;;;;;;4.90;2.35;;;;;;;;;;4952857;28;25054;-75
2023/03/17 09:42:44;;;;;;;5.88;2.70;;;;;;;;;;4955099;28;25085;-76
2023/03/17 09:45:16;;;;;;;4.78;2.83;;;;;;;;;;4943908;28;25095;-78
2023/03/17 09:47:52;;;;;;;6.22;2.47;;;;;;;;;;4959849;28;25066;-77
2023/03/17 09:50:26;;;;;;;5.22;2.50;;;;;;;;;;4955103;28;25087;-77
2023/03/17 09:52:55;;;;;;;7.15;2.60;;;;;;;;;;4947330;28;25080;-76
2023/03/17 09:55:28;;;;;;;6.22;2.35;;;;;;;;;;4943157;28;25057;-77
2023/03/17 09:57:55;;;;;;;4.80;2.72;;;;;;;;;;4967047;28;25074;-77
2023/03/17 10:00:26;;;;;;;10.18;4.10;;;;;;;;;;4956507;28;25136;-76
2023/03/17 10:02:52;;;;;;;7.75;3.20;;;;;;;;;;4957237;28;25180;-78
2023/03/17 10:05:23;;;;;;;4.47;2.65;;;;;;;;;;4950891;28;25075;-77
2023/03/17 10:08:12;;;;;;;5.25;3.00;;;;;;;;;;4955823;28;25143;-75
2023/03/17 10:10:45;;;;;;;12.65;2.88;;;;;;;;;;4941687;28;25165;-77
2023/03/17 10:13:23;;;;;;;7.47;2.97;;;;;;;;;;4951995;28;25092;-76
2023/03/17 10:16:02;;;;;;;5.70;3.00;;;;;;;;;;4953146;28;25069;-77
2023/03/17 10:18:38;;;;;;;5.82;3.08;;;;;;;;;;4954203;28;25063;-77
2023/03/17 10:21:07;;;;;;;6.30;3.38;;;;;;;;;;4949858;28;25095;-76
2023/03/17 10:23:34;;;;;;;6.75;3.40;;;;;;;;;;4951209;28;25094;-77
2023/03/17 10:26:05;;;;;;;12.05;3.38;;;;;;;;;;4959460;28;25109;-78
2023/03/17 10:28:34;;;;;;;8.38;4.65;;;;;;;;;;4952197;28;25072;-78
2023/03/17 10:31:06;;;;;;;5.07;3.08;;;;;;;;;;4951244;28;25106;-76
2023/03/17 10:33:32;;;;;;;7.22;3.67;;;;;;;;;;4952964;28;25070;-77
2023/03/17 10:36:07;;;;;;;6.50;3.35;;;;;;;;;;4956618;28;25058;-79
2023/03/17 10:38:33;;;;;;;9.52;3.15;;;;;;;;;;4946444;28;25060;-77
2023/03/17 10:41:02;;;;;;;5.35;3.10;;;;;;;;;;4949156;28;25059;-76
2023/03/17 10:43:30;;;;;;;9.00;3.65;;;;;;;;;;4946996;28;25076;-77
2023/03/17 10:46:01;;;;;;;6.63;3.53;;;;;;;;;;4950853;28;25049;-79
2023/03/17 10:48:28;;;;;;;7.53;3.70;;;;;;;;;;4963668;28;25073;-77
2023/03/17 10:50:57;;;;;;;9.57;4.00;;;;;;;;;;4954543;28;25102;-75
2023/03/17 10:53:26;;;;;;;7.70;3.65;;;;;;;;;;4953274;28;25060;-78
2023/03/17 10:55:54;;;;;;;9.95;3.60;;;;;;;;;;4957088;28;25058;-77
2023/03/17 10:58:32;;;;;;;8.65;4.07;;;;;;;;;;4953149;28;25105;-76
2023/03/17 11:01:02;;;;;;;8.98;3.95;;;;;;;;;;4955098;28;25107;-77
2023/03/17 11:03:30;;;;;;;11.02;4.22;;;;;;;;;;4958370;28;25071;-78
2023/03/17 11:06:02;;;;;;;10.40;4.38;;;;;;;;;;4958188;28;25144;-78
2023/03/17 11:08:35;;;;;;;9.77;3.92;;;;;;;;;;4956306;28;25059;-77
2023/03/17 11:11:05;;;;;;;7.20;3.72;;;;;;;;;;4952744;28;25087;-76
2023/03/17 11:13:31;;;;;;;8.38;3.90;;;;;;;;;;4954920;28;25072;-77
2023/03/17 11:16:04;;;;;;;8.20;4.05;;;;;;;;;;4948259;28;25140;-76
2023/03/17 11:18:36;;;;;;;12.35;4.07;;;;;;;;;;4952174;28;25064;-79
2023/03/17 11:21:02;;;;;;;14.52;4.68;;;;;;;;;;4950377;28;25144;-77
2023/03/17 11:23:35;;;;;;;11.77;5.43;;;;;;;;;;4952248;28;25094;-76
2023/03/17 11:26:17;;;;;;;7.57;3.92;;;;;;;;;;4954869;28;25140;-77
2023/03/17 11:28:46;;;;;;;10.48;3.83;;;;;;;;;;4944949;28;25066;-76
2023/03/17 11:31:22;;;;;;;8.95;3.90;;;;;;;;;;4957031;28;25076;-77
2023/03/17 11:33:54;;;;;;;9.13;3.50;;;;;;;;;;4948640;28;25074;-78
2023/03/17 11:36:26;;;;;;;5.40;3.92;;;;;;;;;;4944803;28;25096;-76
2023/03/17 11:39:12;;;;;;;12.85;5.75;;;;;;;;;;4955020;28;25065;-77
2023/03/17 11:41:40;;;;;;;8.68;4.78;;;;;;;;;;4957535;28;25073;-76
2023/03/17 11:44:22;;;;;;;10.32;4.22;;;;;;;;;;4955269;28;25067;-75
2023/03/17 11:47:00;;;;;;;6.20;3.65;;;;;;;;;;4952879;28;25062;-78
2023/03/17 11:49:36;;;;;;;8.85;3.50;;;;;;;;;;4959411;28;25096;-77
2023/03/17 11:52:21;;;;;;;11.63;4.70;;;;;;;;;;4958238;28;25080;-75
2023/03/17 11:55:06;;;;;;;9.80;4.53;;;;;;;;;;4958575;28;25100;-76
2023/03/17 11:57:52;;;;;;;17.65;4.78;;;;;;;;;;4952927;28;25056;-75
2023/03/17 12:00:22;;;;;;;8.40;4.70;;;;;;;;;;4966183;28;25072;-79
2023/03/17 12:03:08;;;;;;;9.77;4.95;;;;;;;;;;4965189;28;25087;-80
2023/03/17 12:05:36;;;;;;;9.40;4.60;;;;;;;;;;4944675;28;25083;-81
2023/03/17 12:08:05;;;;;;;9.57;4.82;;;;;;;;;;4958973;28;25075;-77
2023/03/17 12:10:48;;;;;;;16.67;4.93;;;;;;;;;;4959095;28;25070;-78
2023/03/17 12:13:14;;;;;;;9.50;4.93;;;;;;;;;;4970213;28;25091;-77
2023/03/17 12:15:51;;;;;;;9.18;4.63;;;;;;;;;;4970066;28;25074;-76
2023/03/17 12:18:17;;;;;;;9.40;4.40;;;;;;;;;;4963805;28;25079;-77
2023/03/17 12:20:47;;;;;;;11.35;4.38;;;;;;;;;;4956603;28;25097;-77
2023/03/17 12:23:28;;;;;;;7.78;4.18;;;;;;;;;;4966388;28;25056;-79
2023/03/17 12:25:56;;;;;;;9.90;4.03;;;;;;;;;;4964815;28;25109;-78
2023/03/17 12:28:25;;;;;;;10.60;4.97;;;;;;;;;;4969218;28;25092;-79
2023/03/17 12:30:53;;;;;;;8.63;4.18;;;;;;;;;;4962506;28;25135;-77
2023/03/17 12:33:33;;;;;;;8.05;4.38;;;;;;;;;;4941507;28;25062;-77
2023/03/17 12:36:00;;;;;;;15.48;4.18;;;;;;;;;;4938701;28;25085;-76
2023/03/17 12:38:38;;;;;;;10.52;4.57;;;;;;;;;;4939992;28;25081;-78
2023/03/17 12:41:04;;;;;;;8.82;4.15;;;;;;;;;;4939784;28;25098;-76
2023/03/17 12:43:39;;;;;;;8.23;4.90;;;;;;;;;;4946155;28;25147;-79
2023/03/17 12:46:13;;;;;;;12.35;6.03;;;;;;;;;;4941455;28;25078;-75
2023/03/17 12:48:39;;;;;;;11.13;5.53;;;;;;;;;;4949686;28;25067;-77
2023/03/17 12:51:15;;;;;;;10.27;4.30;;;;;;;;;;4947771;28;25066;-75
2023/03/17 12:53:43;;;;;;;8.98;4.40;;;;;;;;;;4944674;28;25054;-78
2023/03/17 12:56:18;;;;;;;9.88;4.82;;;;;;;;;;4943712;28;25102;-82
2023/03/17 12:58:45;;;;;;;12.98;4.95;;;;;;;;;;4945955;28;25094;-77
2023/03/17 13:01:16;;;;;;;14.07;4.97;;;;;;;;;;4937922;28;25065;-78
2023/03/17 13:03:46;;;;;;;9.45;4.50;;;;;;;;;;4942453;28;25073;-78
2023/03/17 13:06:16;;;;;;;11.30;5.10;;;;;;;;;;4944588;28;25075;-80
2023/03/17 13:08:42;;;;;;;10.60;4.95;;;;;;;;;;4940455;28;25088;-79
2023/03/17 13:11:19;;;;;;;17.13;5.32;;;;;;;;;;4938250;28;25127;-78
2023/03/17 13:13:58;;;;;;;9.70;5.13;;;;;;;;;;4940256;28;25108;-77
2023/03/17 13:16:27;;;;;;;8.27;4.88;;;;;;;;;;4942969;28;25083;-76
2023/03/17 13:19:06;;;;;;;9.27;4.93;;;;;;;;;;4946709;28;25089;-77
2023/03/17 13:21:32;;;;;;;11.55;5.30;;;;;;;;;;4938673;28;25069;-77
2023/03/17 13:24:18;;;;;;;10.18;5.25;;;;;;;;;;4945989;28;25057;-78
2023/03/17 13:27:00;;;;;;;8.57;5.30;;;;;;;;;;4934990;28;25112;-77
2023/03/17 13:29:32;;;;;;;9.05;4.88;;;;;;;;;;4947100;28;25057;-76
2023/03/17 13:32:17;;;;;;;8.63;4.55;;;;;;;;;;4947790;28;25054;-78
2023/03/17 13:35:08;;;;;;;6.30;4.45;;;;;;;;;;4958111;28;25085;-78
2023/03/17 13:37:40;;;;;;;10.82;5.30;;;;;;;;;;4947217;28;25177;-76
2023/03/17 13:40:06;;;;;;;;;;;;;;;;;;4945866;28;25166;-77
2023/03/17 13:42:38;;;;;;;14.40;5.22;;;;;;;;;;4950038;28;24104;-78
2023/03/17 13:45:04;;;;;;;10.85;5.25;;;;;;;;;;4937411;28;25155;-77
2023/03/17 13:47:34;;;;;;;9.93;4.97;;;;;;;;;;4958275;28;25130;-78
2023/03/17 13:50:21;;;;;;;7.97;5.00;;;;;;;;;;4955307;28;25070;-77
2023/03/17 13:52:55;;;;;;;11.10;4.75;;;;;;;;;;4942250;28;25055;-79
2023/03/17 13:55:22;;;;;;;15.88;4.60;;;;;;;;;;4935104;28;25071;-76
2023/03/17 13:58:09;;;;;;;10.32;4.53;;;;;;;;;;4945880;28;25110;-76
2023/03/17 14:00:36;;;;;;;9.77;4.93;;;;;;;;;;4933029;28;25059;-76
2023/03/17 14:03:02;;;;;;;9.55;5.05;;;;;;;;;;4941717;28;25068;-75
2023/03/17 14:05:30;;;;;;;11.55;4.78;;;;;;;;;;4945133;28;25073;-77
2023/03/17 14:07:58;;;;;;;8.90;5.20;;;;;;;;;;4922447;28;25164;-76
2023/03/17 14:10:26;;;;;;;9.30;4.40;;;;;;;;;;4938433;28;25127;-77
2023/03/17 14:12:52;;;;;;;10.15;4.55;;;;;;;;;;4942671;28;25075;-77
2023/03/17 14:15:25;;;;;;;11.18;5.35;;;;;;;;;;4935331;28;25142;-77
2023/03/17 14:17:54;;;;;;;10.93;4.43;;;;;;;;;;4946413;28;25075;-76
2023/03/17 14:20:22;;;;;;;10.95;5.32;;;;;;;;;;4941970;28;25149;-77
2023/03/17 14:22:53;;;;;;;10.00;5.43;;;;;;;;;;4935770;28;25168;-76
2023/03/17 14:25:21;;;;;;;7.40;4.75;;;;;;;;;;4941690;28;25073;-76
2023/03/17 14:27:52;;;;;;;11.07;4.45;;;;;;;;;;4943994;28;25088;-77
2023/03/17 14:30:25;;;;;;;11.23;5.47;;;;;;;;;;4930659;28;25059;-77
2023/03/17 14:33:12;;;;;;;12.15;4.43;;;;;;;;;;4934898;28;25118;-77
2023/03/17 14:35:41;;;;;;;8.25;4.72;;;;;;;;;;4947074;28;25161;-76
2023/03/17 14:38:24;;;;;;;8.98;4.80;;;;;;;;;;4946682;28;25063;-77
2023/03/17 14:40:58;;;;;;;11.95;4.70;;;;;;;;;;4947413;28;25081;-78
2023/03/17 14:43:25;;;;;;;12.75;5.00;;;;;;;;;;4948475;28;25048;-77
2023/03/17 14:45:52;;;;;;;11.77;5.30;;;;;;;;;;4952965;28;25108;-78
2023/03/17 14:48:23;;;;;;;9.45;5.18;;;;;;;;;;4944392;28;25077;-78